createdAt,value
2019-04-20T22:14:10.744Z,61.82
2019-04-20T22:15:09.229Z,62.11
2019-04-20T22:16:59.193Z,62.01
2019-04-20T22:18:01.098Z,61.79
2019-04-20T22:20:08.340Z,61.89
2019-04-20T22:21:03.563Z,61.89
2019-04-20T22:23:01.162Z,62.18
2019-04-20T22:23:59.745Z,62.84
2019-04-20T22:25:55.235Z,62.27
2019-04-20T22:26:53.614Z,62.46
2019-04-20T22:28:34.111Z,62.55
2019-04-20T22:29:34.339Z,62.55
2019-04-20T22:31:29.880Z,62.55
2019-04-20T22:32:30.050Z,62.94
2019-04-20T22:33:33.599Z,63.03
2019-04-20T22:34:31.486Z,63.03
2019-04-20T22:35:31.180Z,63.60
2019-04-20T22:36:35.165Z,63.70
2019-04-20T22:37:31.496Z,63.60
2019-04-20T22:38:30.815Z,63.80
2019-04-20T22:39:35.586Z,63.99
2019-04-20T22:40:33.038Z,63.48
2019-04-20T22:41:32.216Z,63.89
2019-04-20T22:42:30.361Z,63.42
2019-04-20T22:43:33.896Z,63.80
2019-04-20T22:44:32.177Z,64.47
2019-04-20T22:45:33.434Z,64.37
2019-04-20T22:46:33.728Z,64.34
2019-04-20T22:47:32.578Z,64.25
2019-04-20T22:48:31.348Z,64.25
2019-04-20T22:49:47.268Z,64.15
2019-04-20T22:50:43.780Z,64.28
2019-04-20T22:51:44.080Z,64.53
2019-04-20T22:52:42.635Z,64.28
2019-04-20T22:53:43.992Z,64.34
2019-04-20T22:54:46.691Z,64.25
2019-04-20T22:55:57.738Z,64.25
2019-04-20T22:56:43.745Z,64.62
2019-04-20T22:57:45.101Z,64.62
2019-04-20T22:58:44.820Z,64.91
2019-04-20T22:59:38.274Z,64.43
2019-04-20T23:00:39.293Z,64.72
2019-04-20T23:01:38.651Z,65.30
2019-04-20T23:02:30.207Z,65.48
2019-04-20T23:03:30.552Z,65.39
2019-04-20T23:04:30.893Z,65.67
2019-04-20T23:05:29.300Z,65.58
2019-04-20T23:06:33.432Z,65.67
2019-04-20T23:07:30.749Z,65.96
2019-04-20T23:08:30.693Z,66.44
2019-04-20T23:09:32.752Z,66.35
2019-04-20T23:10:34.902Z,66.92
2019-04-20T23:11:33.232Z,66.63
2019-04-20T23:12:30.362Z,66.63
2019-04-20T23:13:35.105Z,66.41
2019-04-20T23:14:29.227Z,66.60
2019-04-20T23:15:30.135Z,66.35
2019-04-20T23:16:38.129Z,66.63
2019-04-20T23:17:36.557Z,66.69
2019-04-20T23:18:29.199Z,66.63
2019-04-20T23:19:39.237Z,66.60
2019-04-20T23:20:33.755Z,66.41
2019-04-20T23:21:29.956Z,66.41
2019-04-20T23:22:36.867Z,66.60
2019-04-20T23:23:31.000Z,67.27
2019-04-20T23:24:29.304Z,67.27
2019-04-20T23:25:31.195Z,67.17
2019-04-20T23:26:33.543Z,67.83
2019-04-20T23:27:31.733Z,67.36
2019-04-20T23:28:29.203Z,67.46
2019-04-20T23:29:33.987Z,67.27
2019-04-20T23:30:33.982Z,67.36
2019-04-20T23:31:30.459Z,67.36
2019-04-20T23:32:30.259Z,67.65
2019-04-20T23:33:29.846Z,67.65
2019-04-20T23:34:32.443Z,68.12
2019-04-20T23:35:30.357Z,68.03
2019-04-20T23:36:36.578Z,68.41
2019-04-20T23:37:32.134Z,68.12
2019-04-20T23:38:29.086Z,68.51
2019-04-20T23:39:35.535Z,68.51
2019-04-20T23:40:29.884Z,68.41
2019-04-20T23:41:29.074Z,68.70
2019-04-20T23:42:34.281Z,68.12
2019-04-20T23:43:33.374Z,68.32
2019-04-20T23:44:29.350Z,68.12
2019-04-20T23:45:36.946Z,68.12
2019-04-20T23:46:31.412Z,68.12
2019-04-20T23:47:30.054Z,68.79
2019-04-20T23:48:34.858Z,68.32
2019-04-20T23:49:37.634Z,68.70
2019-04-20T23:50:47.698Z,68.88
2019-04-20T23:51:52.492Z,68.70
2019-04-20T23:52:49.357Z,68.60
2019-04-20T23:53:41.759Z,68.70
2019-04-20T23:54:31.863Z,68.79
2019-04-20T23:55:29.774Z,69.65
2019-04-20T23:56:29.959Z,69.65
2019-04-20T23:57:29.407Z,69.27
2019-04-20T23:58:30.982Z,69.56
2019-04-20T23:59:37.187Z,69.93
